Time;durP1;ratioP1;P1;durP2;ratioP2;P2;SDS_P1;SDS_P2;PMS_P1;PMS_P2;Temp;Humidity;BMP_temperature;BMP_pressure;BME280_temperature;BME280_humidity;BME280_pressure;Samples;Min_cycle;Max_cycle;Signal;HPM_P1;HPM_P2
2022/07/06 00:01:40;;;;;;;;;;;;;;;27.22;36.80;100561.25;5072119;28;1196;-36
2022/07/06 00:04:06;;;;;;;;;;;;;;;27.12;36.69;100558.84;5071016;28;995;-37
2022/07/06 00:06:31;;;;;;;;;;;;;;;27.05;37.24;100555.22;5067345;28;961;-38
2022/07/06 00:08:57;;;;;;;;;;;;;;;27.10;36.98;100561.75;5073167;28;1138;-37
2022/07/06 00:11:22;;;;;;;;;;;;;;;27.22;36.78;100569.38;5072658;28;1902;-33
2022/07/06 00:13:47;;;;;;;;;;;;;;;27.28;36.38;100552.41;5074189;28;1023;-36
2022/07/06 00:16:12;;;;;;;;;;;;;;;27.32;35.85;100558.28;5065527;28;1012;-35
2022/07/06 00:18:38;;;;;;;;;;;;;;;27.34;36.17;100567.84;5063761;28;1024;-37
2022/07/06 00:21:03;;;;;;;;;;;;;;;27.34;36.19;100567.03;5068696;28;1012;-36
2022/07/06 00:23:28;;;;;;;;;;;;;;;27.20;36.37;100566.84;5074189;28;2638;-37
2022/07/06 00:25:54;;;;;;;;;;;;;;;27.23;36.48;100573.72;5069170;28;953;-34
2022/07/06 00:28:19;;;;;;;;;;;;;;;27.23;36.64;100568.34;5067148;28;1028;-38
2022/07/06 00:30:44;;;;;;;;;;;;;;;27.28;36.80;100560.50;5066817;28;1100;-34
2022/07/06 00:33:09;;;;;;;;;;;;;;;27.19;36.64;100565.19;5067506;28;1898;-34
2022/07/06 00:35:35;;;;;;;;;;;;;;;27.20;37.24;100561.47;5069881;28;1154;-38
2022/07/06 00:38:00;;;;;;;;;;;;;;;27.28;36.99;100565.09;5067119;28;1067;-34
2022/07/06 00:40:25;;;;;;;;;;;;;;;27.17;36.97;100553.72;5071987;28;1138;-33
2022/07/06 00:42:51;;;;;;;;;;;;;;;27.22;37.68;100547.75;5070634;28;1012;-38
2022/07/06 00:45:16;;;;;;;;;;;;;;;27.29;36.93;100545.16;5075611;28;1162;-37
2022/07/06 00:47:42;;;;;;;;;;;;;;;27.35;37.31;100541.69;5078128;28;1090;-34
2022/07/06 00:50:14;;;;;;;;;;;;;;;27.24;36.77;100543.03;5065411;28;942;-38
2022/07/06 00:52:42;;;;;;;;;;;;;;;27.18;37.38;100539.19;5060436;28;1952;-35
2022/07/06 00:55:10;;;;;;;;;;;;;;;27.23;37.30;100538.63;5065366;28;2654;-37
2022/07/06 00:57:36;;;;;;;;;;;;;;;27.29;37.07;100537.88;5077460;28;1181;-37
2022/07/06 01:00:02;;;;;;;;;;;;;;;27.29;36.99;100535.19;5071232;28;965;-34
2022/07/06 01:02:30;;;;;;;;;;;;;;;27.09;37.61;100538.47;5071949;28;1036;-38
2022/07/06 01:04:55;;;;;;;;;;;;;;;27.18;37.34;100527.56;5071092;28;1185;-34
2022/07/06 01:07:20;;;;;;;;;;;;;;;27.25;37.38;100531.19;5065185;28;1004;-35
2022/07/06 01:09:46;;;;;;;;;;;;;;;27.34;36.66;100532.72;5070525;28;1035;-37
2022/07/06 01:12:11;;;;;;;;;;;;;;;27.18;36.61;100528.41;5072204;28;1902;-34
2022/07/06 01:14:36;;;;;;;;;;;;;;;27.20;36.94;100534.44;5073771;28;1066;-35
2022/07/06 01:17:02;;;;;;;;;;;;;;;27.23;36.93;100534.06;5070931;28;988;-35
2022/07/06 01:19:27;;;;;;;;;;;;;;;27.32;37.06;100529.41;5069955;28;997;-34
2022/07/06 01:21:52;;;;;;;;;;;;;;;27.35;36.78;100522.78;5076841;28;1162;-36
2022/07/06 01:24:18;;;;;;;;;;;;;;;27.41;36.91;100524.69;5070086;28;2543;-37
2022/07/06 01:26:43;;;;;;;;;;;;;;;27.29;36.17;100521.69;5069371;28;1067;-35
2022/07/06 01:29:08;;;;;;;;;;;;;;;27.25;36.69;100523.94;5066504;28;1032;-33
2022/07/06 01:31:33;;;;;;;;;;;;;;;27.26;36.52;100530.13;5067604;28;1901;-35
2022/07/06 01:33:59;;;;;;;;;;;;;;;27.34;36.48;100523.81;5068002;28;1063;-36
2022/07/06 01:36:25;;;;;;;;;;;;;;;27.39;36.58;100524.91;5067327;28;1135;-35
2022/07/06 01:38:50;;;;;;;;;;;;;;;27.40;36.41;100520.34;5073438;28;1123;-34
2022/07/06 01:41:16;;;;;;;;;;;;;;;27.28;36.56;100517.28;5069320;28;989;-38
2022/07/06 01:43:41;;;;;;;;;;;;;;;27.19;36.97;100516.59;5070531;28;1139;-33
2022/07/06 01:46:07;;;;;;;;;;;;;;;27.16;37.15;100516.94;5058314;28;937;-39
2022/07/06 01:48:32;;;;;;;;;;;;;;;27.20;37.15;100520.09;5065279;28;969;-35
2022/07/06 01:50:57;;;;;;;;;;;;;;;27.18;36.59;100520.28;5066518;28;1184;-34
2022/07/06 01:53:22;;;;;;;;;;;;;;;27.06;37.16;100517.25;5071412;28;1965;-32
2022/07/06 01:55:48;;;;;;;;;;;;;;;27.18;36.89;100519.44;5071304;28;1160;-34
2022/07/06 01:58:13;;;;;;;;;;;;;;;27.27;36.56;100518.34;5057830;28;993;-34
2022/07/06 02:00:38;;;;;;;;;;;;;;;27.33;36.79;100520.25;5071566;28;1040;-34
2022/07/06 02:03:04;;;;;;;;;;;;;;;27.36;36.35;100527.16;5068113;28;1054;-37
2022/07/06 02:05:29;;;;;;;;;;;;;;;27.36;36.46;100519.88;5067331;28;976;-35
2022/07/06 02:07:54;;;;;;;;;;;;;;;27.13;36.38;100522.72;5067460;28;1036;-34
2022/07/06 02:10:19;;;;;;;;;;;;;;;27.18;36.59;100519.44;5073192;28;1011;-37
2022/07/06 02:12:45;;;;;;;;;;;;;;;27.21;36.62;100519.91;5074726;28;1961;-38
2022/07/06 02:15:10;;;;;;;;;;;;;;;27.31;36.31;100516.91;5074430;28;1159;-38
2022/07/06 02:17:35;;;;;;;;;;;;;;;27.26;36.22;100517.47;5071123;28;1051;-33
2022/07/06 02:20:01;;;;;;;;;;;;;;;27.23;36.59;100527.81;5069985;28;1143;-36
2022/07/06 02:22:26;;;;;;;;;;;;;;;27.27;36.66;100518.34;5067400;28;1070;-37
2022/07/06 02:24:51;;;;;;;;;;;;;;;27.32;36.59;100520.47;5066649;28;2724;-33
2022/07/06 02:27:16;;;;;;;;;;;;;;;27.29;36.18;100515.44;5068866;28;1067;-38
2022/07/06 02:29:42;;;;;;;;;;;;;;;27.14;36.73;100516.31;5067803;28;1059;-35
2022/07/06 02:32:07;;;;;;;;;;;;;;;27.20;36.70;100512.00;5069165;28;1886;-35
2022/07/06 02:34:33;;;;;;;;;;;;;;;27.20;36.92;100515.56;5073896;28;1141;-32
2022/07/06 02:37:00;;;;;;;;;;;;;;;27.25;36.98;100510.41;5073246;28;1198;-33
2022/07/06 02:39:25;;;;;;;;;;;;;;;27.31;37.03;100508.00;5075447;28;964;-36
2022/07/06 02:41:50;;;;;;;;;;;;;;;27.30;37.15;100507.16;5069461;28;1242;-37
2022/07/06 02:44:16;;;;;;;;;;;;;;;27.34;36.94;100508.41;5064308;28;987;-37
2022/07/06 02:46:41;;;;;;;;;;;;;;;27.28;37.08;100511.91;5063717;28;964;-33
2022/07/06 02:49:06;;;;;;;;;;;;;;;27.12;37.12;100512.97;5065651;28;1171;-34
2022/07/06 02:51:31;;;;;;;;;;;;;;;27.22;37.18;100507.25;5072002;28;1898;-33
2022/07/06 02:53:57;;;;;;;;;;;;;;;27.26;37.11;100495.88;5068233;28;2559;-35
2022/07/06 02:56:22;;;;;;;;;;;;;;;27.34;37.25;100499.50;5063996;28;1020;-38
2022/07/06 02:58:47;;;;;;;;;;;;;;;27.37;36.96;100504.53;5062837;28;1083;-38
2022/07/06 03:01:13;;;;;;;;;;;;;;;27.34;36.49;100497.63;5068477;28;1099;-38
2022/07/06 03:03:38;;;;;;;;;;;;;;;27.21;36.92;100498.31;5061153;28;1025;-37
2022/07/06 03:06:03;;;;;;;;;;;;;;;27.19;36.90;100500.38;5067661;28;1012;-38
2022/07/06 03:08:28;;;;;;;;;;;;;;;27.27;36.74;100496.72;5072486;28;1067;-35
2022/07/06 03:10:54;;;;;;;;;;;;;;;27.33;36.73;100493.25;5074568;28;1063;-37
2022/07/06 03:13:19;;;;;;;;;;;;;;;27.39;36.55;100489.78;5074599;28;1971;-38
2022/07/06 03:15:44;;;;;;;;;;;;;;;27.39;36.50;100486.28;5065873;28;969;-34
2022/07/06 03:18:10;;;;;;;;;;;;;;;27.41;36.22;100488.78;5064042;28;957;-37
2022/07/06 03:20:35;;;;;;;;;;;;;;;27.24;36.10;100484.44;5066953;28;1039;-36
2022/07/06 03:23:00;;;;;;;;;;;;;;;27.26;36.55;100490.47;5069457;28;2449;-35
2022/07/06 03:25:26;;;;;;;;;;;;;;;27.34;36.76;100494.09;5068069;28;972;-38
2022/07/06 03:27:51;;;;;;;;;;;;;;;27.35;36.46;100493.91;5072692;28;965;-38
2022/07/06 03:30:16;;;;;;;;;;;;;;;27.35;36.75;100493.91;5068465;28;1099;-35
2022/07/06 03:32:42;;;;;;;;;;;;;;;27.23;37.18;100496.25;5074046;28;1945;-34
2022/07/06 03:35:07;;;;;;;;;;;;;;;27.29;37.52;100494.69;5076073;28;1135;-34
2022/07/06 03:37:32;;;;;;;;;;;;;;;27.30;37.07;100490.94;5079315;28;999;-37
2022/07/06 03:39:58;;;;;;;;;;;;;;;27.36;37.17;100497.47;5073347;28;949;-36
2022/07/06 03:42:23;;;;;;;;;;;;;;;26.93;37.64;100500.84;5067451;28;1198;-33
2022/07/06 03:44:48;;;;;;;;;;;;;;;26.72;38.85;100495.19;5074916;28;988;-35
2022/07/06 03:47:13;;;;;;;;;;;;;;;26.09;39.94;100501.69;5071349;28;1003;-34
2022/07/06 03:49:39;;;;;;;;;;;;;;;26.29;38.94;100499.31;5075342;28;1019;-32
2022/07/06 03:52:04;;;;;;;;;;;;;;;25.94;39.47;100509.75;5075269;28;1898;-31
2022/07/06 03:54:29;;;;;;;;;;;;;;;26.25;39.45;100498.00;5069794;28;2689;-32
2022/07/06 03:56:55;;;;;;;;;;;;;;;26.06;39.62;100504.75;5068738;28;1056;-37
2022/07/06 03:59:20;;;;;;;;;;;;;;;26.18;39.11;100507.84;5069813;28;1056;-34
2022/07/06 04:01:45;;;;;;;;;;;;;;;25.98;39.52;100512.91;5074534;28;1051;-32
2022/07/06 04:04:10;;;;;;;;;;;;;;;26.07;39.71;100519.91;5076806;28;1186;-37
2022/07/06 04:06:36;;;;;;;;;;;;;;;26.24;39.36;100507.09;5074789;28;1075;-36
2022/07/06 04:09:01;;;;;;;;;;;;;;;26.64;38.27;100511.47;5078301;28;1114;-36
2022/07/06 04:11:26;;;;;;;;;;;;;;;26.93;37.67;100501.69;5075970;28;1918;-36
2022/07/06 04:13:52;;;;;;;;;;;;;;;27.20;37.32;100502.06;5068868;28;980;-36
2022/07/06 04:16:17;;;;;;;;;;;;;;;27.42;36.51;100495.84;5072690;28;1015;-34
2022/07/06 04:18:42;;;;;;;;;;;;;;;27.46;36.39;100489.03;5072023;28;1138;-35
2022/07/06 04:21:08;;;;;;;;;;;;;;;27.23;36.54;100495.41;5067784;28;1024;-36
2022/07/06 04:23:33;;;;;;;;;;;;;;;27.20;36.78;100485.84;5073517;28;2229;-38
2022/07/06 04:25:58;;;;;;;;;;;;;;;27.28;36.62;100484.06;5062269;28;1080;-37
2022/07/06 04:28:23;;;;;;;;;;;;;;;27.48;36.10;100495.91;5071519;28;1143;-37
2022/07/06 04:30:49;;;;;;;;;;;;;;;27.12;36.24;100494.91;5070922;28;1016;-35
2022/07/06 04:33:14;;;;;;;;;;;;;;;27.23;36.77;100501.66;5071907;28;1910;-34
2022/07/06 04:35:39;;;;;;;;;;;;;;;27.35;36.59;100498.47;5072241;28;948;-37
2022/07/06 04:38:05;;;;;;;;;;;;;;;27.42;35.91;100498.53;5072743;28;980;-35
2022/07/06 04:40:30;;;;;;;;;;;;;;;27.37;35.44;100496.41;5068960;28;1000;-32
2022/07/06 04:42:55;;;;;;;;;;;;;;;27.34;36.02;100502.19;5067982;28;972;-37
2022/07/06 04:45:21;;;;;;;;;;;;;;;27.37;36.08;100496.41;5068564;28;1041;-36
2022/07/06 04:47:46;;;;;;;;;;;;;;;27.35;35.14;100496.63;5073396;28;1035;-35
2022/07/06 04:50:12;;;;;;;;;;;;;;;27.40;36.01;100498.72;5075879;28;1130;-34
2022/07/06 04:52:37;;;;;;;;;;;;;;;27.48;35.33;100506.72;5070996;28;1898;-38
2022/07/06 04:55:04;;;;;;;;;;;;;;;27.34;34.98;100499.50;5063429;28;2210;-34
2022/07/06 04:57:30;;;;;;;;;;;;;;;27.42;35.66;100498.53;5069149;28;1005;-35
2022/07/06 04:59:56;;;;;;;;;;;;;;;27.48;35.51;100504.00;5073002;28;983;-34
2022/07/06 05:02:21;;;;;;;;;;;;;;;27.56;35.73;100503.03;5076048;28;1179;-34
2022/07/06 05:04:46;;;;;;;;;;;;;;;27.56;34.88;100505.75;5075177;28;1267;-33
2022/07/06 05:07:12;;;;;;;;;;;;;;;27.52;34.85;100512.59;5070694;28;1032;-37
2022/07/06 05:09:37;;;;;;;;;;;;;;;27.47;35.39;100509.63;5065511;28;997;-35
2022/07/06 05:12:02;;;;;;;;;;;;;;;27.54;35.38;100502.44;5068221;28;1898;-38
2022/07/06 05:14:28;;;;;;;;;;;;;;;27.53;35.37;100505.31;5073071;28;1008;-39
2022/07/06 05:16:53;;;;;;;;;;;;;;;27.80;35.13;100501.03;5069135;28;1088;-37
2022/07/06 05:19:18;;;;;;;;;;;;;;;27.78;34.35;100510.38;5067367;28;1068;-37
2022/07/06 05:21:43;;;;;;;;;;;;;;;27.79;34.75;100506.63;5059225;28;1068;-36
2022/07/06 05:24:09;;;;;;;;;;;;;;;27.75;35.35;100511.59;5065907;28;2007;-35
2022/07/06 05:26:34;;;;;;;;;;;;;;;27.77;34.95;100503.28;5067520;28;1143;-33
2022/07/06 05:28:59;;;;;;;;;;;;;;;27.78;35.07;100504.97;5067763;28;996;-37
2022/07/06 05:31:25;;;;;;;;;;;;;;;27.68;35.13;100508.81;5061524;28;1052;-36
2022/07/06 05:33:50;;;;;;;;;;;;;;;27.72;35.54;100506.56;5075362;28;1909;-38
2022/07/06 05:36:15;;;;;;;;;;;;;;;27.70;35.57;100509.47;5076049;28;948;-34
2022/07/06 05:38:40;;;;;;;;;;;;;;;27.61;34.83;100513.31;5076111;28;1278;-36
2022/07/06 05:41:06;;;;;;;;;;;;;;;27.61;35.69;100510.59;5066074;28;938;-35
2022/07/06 05:43:31;;;;;;;;;;;;;;;27.56;34.95;100505.75;5061464;28;973;-36
2022/07/06 05:45:56;;;;;;;;;;;;;;;27.58;35.56;100509.09;5068281;28;1004;-34
2022/07/06 05:51:22;;;;;;;;;;;;;;;27.80;35.57;100511.84;5012310;28;1176;-35
2022/07/06 05:53:47;;;;;;;;;;;;;;;27.64;35.07;100502.09;5048393;28;2336;-34
2022/07/06 05:56:13;;;;;;;;;;;;;;;27.71;35.03;100502.19;5059945;28;1163;-34
2022/07/06 05:58:38;;;;;;;;;;;;;;;27.62;35.76;100493.34;5075023;28;1015;-38
2022/07/06 06:01:03;;;;;;;;;;;;;;;27.64;36.05;100502.09;5062364;28;1312;-33
2022/07/06 06:03:29;;;;;;;;;;;;;;;27.78;35.60;100499.56;5076259;28;1079;-37
2022/07/06 06:05:54;;;;;;;;;;;;;;;27.95;34.99;100495.56;5064473;28;945;-35
2022/07/06 06:08:19;;;;;;;;;;;;;;;27.89;35.67;100495.50;5069237;28;1012;-35
2022/07/06 06:10:45;;;;;;;;;;;;;;;27.83;35.63;100488.97;5069799;28;1000;-36
2022/07/06 06:13:10;;;;;;;;;;;;;;;27.89;35.77;100492.78;5068753;28;1917;-34
2022/07/06 06:15:35;;;;;;;;;;;;;;;28.00;35.73;100486.84;5071733;28;1015;-33
2022/07/06 06:18:01;;;;;;;;;;;;;;;28.03;36.24;100481.03;5072332;28;1036;-35
2022/07/06 06:20:26;;;;;;;;;;;;;;;28.13;35.41;100482.59;5063043;28;989;-35
2022/07/06 06:22:52;;;;;;;;;;;;;;;28.11;35.70;100480.91;5074719;28;2555;-32
2022/07/06 06:25:18;;;;;;;;;;;;;;;28.03;35.86;100478.34;5073649;28;1143;-33
2022/07/06 06:27:44;;;;;;;;;;;;;;;27.99;36.20;100490.59;5076101;28;1055;-34
2022/07/06 06:30:09;;;;;;;;;;;;;;;27.97;35.94;100484.53;5065459;28;993;-38
2022/07/06 06:32:35;;;;;;;;;;;;;;;28.03;35.97;100472.13;5061487;28;1976;-35
2022/07/06 06:35:00;;;;;;;;;;;;;;;28.03;35.86;100480.22;5070239;28;1074;-38
2022/07/06 06:37:25;;;;;;;;;;;;;;;28.24;36.11;100480.16;5066603;28;1118;-39
2022/07/06 06:39:50;;;;;;;;;;;;;;;28.19;36.04;100479.09;5057898;28;1028;-37
2022/07/06 06:42:16;;;;;;;;;;;;;;;28.29;35.96;100470.63;5067720;28;1007;-37
2022/07/06 06:44:41;;;;;;;;;;;;;;;28.34;35.74;100479.84;5060032;28;1143;-38
2022/07/06 06:47:06;;;;;;;;;;;;;;;28.38;35.78;100474.88;5071172;28;992;-37
2022/07/06 06:49:32;;;;;;;;;;;;;;;28.34;35.86;100474.44;5069404;28;1104;-33
2022/07/06 06:51:57;;;;;;;;;;;;;;;28.31;35.63;100472.09;5074982;28;1890;-37
2022/07/06 06:54:22;;;;;;;;;;;;;;;28.39;35.77;100473.00;5061815;28;2505;-37
2022/07/06 06:56:48;;;;;;;;;;;;;;;28.20;35.94;100475.34;5069290;28;1122;-35
2022/07/06 06:59:13;;;;;;;;;;;;;;;28.24;35.72;100473.94;5075669;28;1205;-38
2022/07/06 07:01:38;;;;;;;;;;;;;;;28.29;36.27;100471.47;5069458;28;1417;-49
2022/07/06 07:04:04;;;;;;;;;;;;;;;28.38;35.57;100472.16;5061963;28;936;-38
2022/07/06 07:06:29;;;;;;;;;;;;;;;28.39;35.69;100468.44;5058315;28;1051;-39
2022/07/06 07:08:55;;;;;;;;;;;;;;;28.33;35.57;100461.09;5065403;28;915;-39
2022/07/06 07:11:21;;;;;;;;;;;;;;;28.48;35.84;100469.09;5066209;28;997;-38
2022/07/06 07:13:46;;;;;;;;;;;;;;;28.28;35.93;100467.06;5071634;28;1968;-37
2022/07/06 07:16:11;;;;;;;;;;;;;;;28.35;35.89;100457.19;5073038;28;1191;-36
2022/07/06 07:18:37;;;;;;;;;;;;;;;28.28;36.03;100460.84;5068108;28;1150;-37
2022/07/06 07:21:02;;;;;;;;;;;;;;;28.27;35.82;100467.28;5058486;28;949;-37
2022/07/06 07:23:27;;;;;;;;;;;;;;;28.33;36.18;100470.06;5071851;28;2697;-37
2022/07/06 07:25:53;;;;;;;;;;;;;;;28.26;35.01;100474.53;5067216;28;972;-38
2022/07/06 07:28:18;;;;;;;;;;;;;;;28.32;35.44;100467.53;5069430;28;1152;-38
2022/07/06 07:30:43;;;;;;;;;;;;;;;28.51;35.46;100478.72;5073689;28;964;-36
2022/07/06 07:33:08;;;;;;;;;;;;;;;28.40;35.23;100474.66;5060869;28;1898;-37
2022/07/06 07:35:34;;;;;;;;;;;;;;;28.48;35.45;100474.50;5064971;28;1009;-37
2022/07/06 07:37:59;;;;;;;;;;;;;;;28.50;35.31;100479.72;5066901;28;1087;-37
2022/07/06 07:40:24;;;;;;;;;;;;;;;28.38;35.23;100474.06;5069448;28;1420;-37
2022/07/06 07:42:50;;;;;;;;;;;;;;;28.50;35.54;100475.16;5070865;28;1241;-38
2022/07/06 07:45:15;;;;;;;;;;;;;;;28.46;35.29;100473.91;5068928;28;960;-38
2022/07/06 07:47:40;;;;;;;;;;;;;;;28.53;35.92;100474.75;5073506;28;1159;-37
2022/07/06 07:50:06;;;;;;;;;;;;;;;28.55;34.95;100472.69;5069115;28;1012;-38
2022/07/06 07:52:31;;;;;;;;;;;;;;;28.54;35.02;100468.31;5061866;28;1941;-37
2022/07/06 07:54:57;;;;;;;;;;;;;;;28.70;34.94;100469.84;5062850;28;2285;-38
2022/07/06 07:57:22;;;;;;;;;;;;;;;28.61;35.20;100479.19;5057730;28;928;-37
2022/07/06 07:59:47;;;;;;;;;;;;;;;28.55;34.90;100477.25;5063025;28;961;-37
2022/07/06 08:02:13;;;;;;;;;;;;;;;28.64;34.74;100480.66;5069023;28;1102;-36
2022/07/06 08:04:38;;;;;;;;;;;;;;;28.53;35.19;100477.47;5067786;28;1091;-38
2022/07/06 08:07:03;;;;;;;;;;;;;;;28.56;35.10;100479.75;5070082;28;1065;-37
2022/07/06 08:09:29;;;;;;;;;;;;;;;28.73;35.05;100471.31;5064488;28;1029;-38
2022/07/06 08:11:54;;;;;;;;;;;;;;;28.71;34.86;100476.94;5062120;28;1901;-38
2022/07/06 08:14:19;;;;;;;;;;;;;;;28.76;35.07;100481.72;5062093;28;1055;-38
2022/07/06 08:16:44;;;;;;;;;;;;;;;28.83;34.76;100485.31;5072038;28;995;-37
2022/07/06 08:19:13;;;;;;;;;;;;;;;28.71;35.13;100487.75;5070218;28;1194;-37
2022/07/06 08:21:39;;;;;;;;;;;;;;;28.78;34.90;100487.78;5071487;28;905;-37
2022/07/06 08:24:04;;;;;;;;;;;;;;;28.90;34.86;100487.22;5076427;28;2508;-37
2022/07/06 08:26:30;;;;;;;;;;;;;;;28.91;34.99;100487.00;5078489;28;1015;-37
2022/07/06 08:28:55;;;;;;;;;;;;;;;28.95;34.73;100480.16;5070241;28;960;-38
2022/07/06 08:31:21;;;;;;;;;;;;;;;29.05;34.65;100487.09;5061433;28;961;-37
2022/07/06 08:33:46;;;;;;;;;;;;;;;28.95;34.73;100482.88;5071530;28;1906;-37
2022/07/06 08:36:11;;;;;;;;;;;;;;;28.85;34.52;100483.25;5067373;28;1193;-37
2022/07/06 08:38:37;;;;;;;;;;;;;;;28.86;34.14;100478.69;5061189;28;1174;-38
2022/07/06 08:41:02;;;;;;;;;;;;;;;28.87;34.35;100487.63;5075571;28;968;-37
2022/07/06 08:43:27;;;;;;;;;;;;;;;28.79;34.60;100481.34;5073942;28;1111;-37
2022/07/06 08:45:53;;;;;;;;;;;;;;;28.74;34.70;100475.72;5069911;28;1004;-38
2022/07/06 08:48:18;;;;;;;;;;;;;;;28.81;34.25;100489.28;5076895;28;1161;-38
2022/07/06 08:50:43;;;;;;;;;;;;;;;28.77;34.09;100479.88;5063875;28;1000;-38
2022/07/06 08:53:09;;;;;;;;;;;;;;;28.80;34.37;100477.59;5066102;28;2639;-37
2022/07/06 08:55:35;;;;;;;;;;;;;;;28.68;34.67;100474.63;5059692;28;1024;-37
2022/07/06 08:58:00;;;;;;;;;;;;;;;28.83;34.56;100485.31;5060298;28;945;-38
2022/07/06 09:00:26;;;;;;;;;;;;;;;28.76;34.68;100479.03;5071902;28;1011;-38
2022/07/06 09:02:53;;;;;;;;;;;;;;;28.88;34.57;100475.78;5072019;28;1063;-38
2022/07/06 09:05:19;;;;;;;;;;;;;;;28.91;34.44;100469.94;5073172;28;968;-38
2022/07/06 09:07:45;;;;;;;;;;;;;;;28.82;34.47;100470.13;5073421;28;980;-38
2022/07/06 09:10:10;;;;;;;;;;;;;;;28.89;34.45;100467.44;5063442;28;875;-39
2022/07/06 09:12:36;;;;;;;;;;;;;;;29.00;34.09;100455.22;5075381;28;1910;-38
2022/07/06 09:15:01;;;;;;;;;;;;;;;28.85;34.20;100458.03;5076947;28;1131;-38
2022/07/06 09:17:29;;;;;;;;;;;;;;;28.79;34.02;100456.16;5071311;28;1004;-39
2022/07/06 09:19:55;;;;;;;;;;;;;;;28.90;34.22;100452.00;5069430;28;968;-37
2022/07/06 09:22:27;;;;;;;;;;;;;;;28.94;34.39;100458.72;5061322;28;929;-38
2022/07/06 09:24:53;;;;;;;;;;;;;;;28.77;34.55;100458.22;5070482;28;2646;-36
2022/07/06 09:27:18;;;;;;;;;;;;;;;28.85;34.78;100456.19;5071081;28;1063;-38
2022/07/06 09:29:43;;;;;;;;;;;;;;;28.94;34.31;100453.28;5074629;28;1110;-37
2022/07/06 09:32:08;;;;;;;;;;;;;;;28.74;34.42;100454.06;5071029;28;1961;-38
2022/07/06 09:34:44;;;;;;;;;;;;;;;28.75;34.11;100455.72;5068969;28;966;-38
2022/07/06 09:37:09;;;;;;;;;;;;;;;28.73;34.63;100453.22;5075567;28;1118;-38
2022/07/06 09:39:34;;;;;;;;;;;;;;;28.76;34.41;100449.25;5077583;28;1031;-38
2022/07/06 09:42:00;;;;;;;;;;;;;;;28.73;34.03;100447.78;5067798;28;1059;-39
2022/07/06 09:44:32;;;;;;;;;;;;;;;28.40;34.15;100377.28;5060796;28;1075;-38
2022/07/06 09:46:59;;;;;;;;;;;;;;;28.89;34.28;100453.91;5066562;28;1063;-37
2022/07/06 09:49:24;;;;;;;;;;;;;;;28.76;34.33;100449.25;5070263;28;1004;-38
2022/07/06 09:51:54;;;;;;;;;;;;;;;28.75;34.48;100446.75;5064067;28;1957;-38
2022/07/06 09:54:19;;;;;;;;;;;;;;;28.85;34.72;100447.22;5065734;28;1889;-38
2022/07/06 09:56:50;;;;;;;;;;;;;;;28.87;34.14;100447.00;5059067;28;992;-37
2022/07/06 09:59:15;;;;;;;;;;;;;;;28.76;34.14;100448.44;5066614;28;1019;-36
2022/07/06 10:01:41;;;;;;;;;;;;;;;28.80;34.69;100445.13;5070267;28;1319;-38
2022/07/06 10:04:06;;;;;;;;;;;;;;;28.71;34.68;100441.75;5073913;28;996;-37
2022/07/06 10:06:32;;;;;;;;;;;;;;;28.72;34.16;100438.03;5072627;28;1099;-38
2022/07/06 10:08:58;;;;;;;;;;;;;;;28.77;34.17;100433.84;5066615;28;1146;-38
2022/07/06 10:11:23;;;;;;;;;;;;;;;29.00;33.90;100438.13;5072096;28;1182;-38
2022/07/06 10:13:49;;;;;;;;;;;;;;;28.91;34.12;100434.75;5069027;28;1906;-39
2022/07/06 10:16:14;;;;;;;;;;;;;;;28.89;34.10;100431.41;5061917;28;1096;-38
2022/07/06 10:18:39;;;;;;;;;;;;;;;28.96;34.32;100433.09;5064682;28;1020;-37
2022/07/06 10:21:04;;;;;;;;;;;;;;;29.03;33.84;100437.75;5068104;28;1573;-39
2022/07/06 10:23:30;;;;;;;;;;;;;;;28.91;34.14;100435.56;5065537;28;2494;-37
2022/07/06 10:25:56;;;;;;;;;;;;;;;28.95;34.28;100434.13;5071797;28;1135;-38
2022/07/06 10:28:21;;;;;;;;;;;;;;;29.05;34.38;100428.38;5056219;28;1113;-38
2022/07/06 10:30:46;;;;;;;;;;;;;;;29.04;34.18;100434.00;5072834;28;1140;-40
2022/07/06 10:33:14;;;;;;;;;;;;;;;28.90;34.33;100433.06;5070941;28;1906;-39
2022/07/06 10:35:42;;;;;;;;;;;;;;;28.95;34.49;100436.84;5061161;28;1127;-38
2022/07/06 10:38:08;;;;;;;;;;;;;;;29.16;34.25;100434.22;5069914;28;1000;-38
2022/07/06 10:43:25;;;;;;;;;;;;;;;28.97;34.10;100431.25;5068272;28;1044;-39
2022/07/06 10:45:50;;;;;;;;;;;;;;;28.95;34.67;100439.56;5058810;28;1195;-39
2022/07/06 10:48:17;;;;;;;;;;;;;;;29.08;34.56;100430.66;5061649;28;1242;-38
2022/07/06 10:50:45;;;;;;;;;;;;;;;28.99;34.42;100420.22;5059505;28;1194;-39
2022/07/06 10:53:11;;;;;;;;;;;;;;;29.03;34.16;100421.50;5058522;28;2403;-39
2022/07/06 10:55:37;;;;;;;;;;;;;;;29.08;34.15;100418.97;5061674;28;1187;-38
2022/07/06 10:58:02;;;;;;;;;;;;;;;29.14;34.19;100423.59;5065701;28;1036;-39
2022/07/06 11:00:46;;;;;;;;;;;;;;;28.96;34.25;100413.31;5066896;28;1230;-39
2022/07/06 11:03:30;;;;;;;;;;;;;;;28.89;34.29;100417.88;5073058;28;992;-39
2022/07/06 11:06:16;;;;;;;;;;;;;;;29.18;34.08;100416.72;5062387;28;1060;-38
2022/07/06 11:08:41;;;;;;;;;;;;;;;29.26;33.91;100414.88;5073988;28;1154;-37
2022/07/06 11:11:10;;;;;;;;;;;;;;;29.13;33.89;100410.28;5065260;28;892;-39
2022/07/06 11:13:41;;;;;;;;;;;;;;;29.05;34.03;100408.56;5063728;28;1918;-39
2022/07/06 11:16:07;;;;;;;;;;;;;;;29.13;34.09;100408.38;5065548;28;1000;-39
2022/07/06 11:18:41;;;;;;;;;;;;;;;29.44;33.79;100412.41;5062485;28;1257;-38
2022/07/06 11:21:16;;;;;;;;;;;;;;;29.63;32.62;100403.69;5072321;28;1083;-38
2022/07/06 11:23:42;;;;;;;;;;;;;;;30.02;31.44;100410.09;5060914;28;2720;-38
2022/07/06 11:26:08;;;;;;;;;;;;;;;30.34;31.18;100412.16;5068817;28;1250;-37
2022/07/06 11:28:33;;;;;;;;;;;;;;;30.49;30.28;100405.63;5060799;28;1052;-37
2022/07/06 11:30:59;;;;;;;;;;;;;;;30.71;29.68;100414.31;5056102;28;1080;-37
2022/07/06 11:33:28;;;;;;;;;;;;;;;30.87;30.05;100399.44;5056884;28;1913;-37
2022/07/06 11:36:10;;;;;;;;;;;;;;;30.86;30.08;100400.47;5063708;28;1111;-37
2022/07/06 11:38:36;;;;;;;;;;;;;;;30.91;30.01;100403.34;5059837;28;1171;-37
2022/07/06 11:41:01;;;;;;;;;;;;;;;30.81;30.45;100396.75;5059333;28;1242;-37
2022/07/06 11:43:26;;;;;;;;;;;;;;;30.74;30.49;100394.03;5058582;28;1317;-38
2022/07/06 11:45:51;;;;;;;;;;;;;;;30.62;30.71;100397.44;5061297;28;957;-37
2022/07/06 11:48:17;;;;;;;;;;;;;;;30.80;30.54;100395.91;5064792;28;942;-38
2022/07/06 11:50:42;;;;;;;;;;;;;;;30.78;29.84;100384.41;5067165;28;972;-39
2022/07/06 11:53:07;;;;;;;;;;;;;;;30.57;30.66;100390.97;5069365;28;2487;-38
2022/07/06 11:55:33;;;;;;;;;;;;;;;30.57;29.80;100386.38;5068916;28;1242;-38
2022/07/06 11:57:58;;;;;;;;;;;;;;;30.60;30.76;100385.09;5065561;28;1170;-38
2022/07/06 12:00:23;;;;;;;;;;;;;;;30.54;30.72;100378.66;5066565;28;1147;-37
2022/07/06 12:02:58;;;;;;;;;;;;;;;30.77;30.37;100382.72;5074539;28;1142;-38
2022/07/06 12:05:30;;;;;;;;;;;;;;;30.62;29.85;100383.00;5077436;28;1110;-38
2022/07/06 12:08:05;;;;;;;;;;;;;;;30.79;30.22;100377.94;5077605;28;1154;-38
2022/07/06 12:10:32;;;;;;;;;;;;;;;30.49;30.86;100382.03;5070883;28;1007;-37
2022/07/06 12:13:06;;;;;;;;;;;;;;;30.50;31.20;100374.72;5066748;28;1980;-38
2022/07/06 12:15:31;;;;;;;;;;;;;;;30.40;31.20;100377.88;5071730;28;976;-37
2022/07/06 12:17:56;;;;;;;;;;;;;;;30.27;31.24;100376.91;5071190;28;1036;-38
2022/07/06 12:20:22;;;;;;;;;;;;;;;30.50;30.66;100375.56;5072928;28;1071;-38
2022/07/06 12:22:47;;;;;;;;;;;;;;;30.48;31.52;100374.13;5064668;28;1060;-38
2022/07/06 12:25:28;;;;;;;;;;;;;;;30.51;31.37;100376.41;5060875;28;1917;-38
2022/07/06 12:27:53;;;;;;;;;;;;;;;30.38;31.58;100369.16;5076907;28;1015;-37
2022/07/06 12:30:19;;;;;;;;;;;;;;;30.75;30.75;100373.97;5071714;28;1173;-37
2022/07/06 12:32:44;;;;;;;;;;;;;;;30.67;30.69;100358.75;5059650;28;1898;-37
2022/07/06 12:35:10;;;;;;;;;;;;;;;30.62;30.43;100359.44;5065551;28;938;-37
2022/07/06 12:37:36;;;;;;;;;;;;;;;30.40;31.07;100356.16;5066671;28;1047;-37
2022/07/06 12:40:01;;;;;;;;;;;;;;;30.40;30.77;100348.03;5067914;28;1052;-37
2022/07/06 12:42:28;;;;;;;;;;;;;;;30.39;30.99;100344.50;5070012;28;1105;-37
2022/07/06 12:44:53;;;;;;;;;;;;;;;30.51;31.26;100350.06;5074992;28;1098;-37
2022/07/06 12:47:20;;;;;;;;;;;;;;;30.47;30.71;100342.56;5065802;28;1166;-37